sensor_id;sensor_type;location;lat;lon;timestamp;temperature;humidity
6110;DHT22;3085;49.444;11.054;2022-09-24T00:01:44;12.40;99.90
6110;DHT22;3085;49.444;11.054;2022-09-24T00:04:11;12.40;99.90
6110;DHT22;3085;49.444;11.054;2022-09-24T00:06:40;12.20;99.90
6110;DHT22;3085;49.444;11.054;2022-09-24T00:09:08;12.20;99.90
6110;DHT22;3085;49.444;11.054;2022-09-24T00:11:37;12.30;99.90
6110;DHT22;3085;49.444;11.054;2022-09-24T00:14:05;12.30;99.90
6110;DHT22;3085;49.444;11.054;2022-09-24T00:16:34;12.30;99.90
6110;DHT22;3085;49.444;11.054;2022-09-24T00:19:02;12.30;99.90
6110;DHT22;3085;49.444;11.054;2022-09-24T00:21:31;12.40;99.90
6110;DHT22;3085;49.444;11.054;2022-09-24T00:24:00;12.40;99.90
6110;DHT22;3085;49.444;11.054;2022-09-24T00:26:27;13.70;99.90
6110;DHT22;3085;49.444;11.054;2022-09-24T00:29:16;12.50;99.90
6110;DHT22;3085;49.444;11.054;2022-09-24T00:31:44;12.50;99.90
6110;DHT22;3085;49.444;11.054;2022-09-24T00:34:11;12.50;99.90
6110;DHT22;3085;49.444;11.054;2022-09-24T00:36:37;12.40;99.90
6110;DHT22;3085;49.444;11.054;2022-09-24T00:39:05;12.20;99.90
6110;DHT22;3085;49.444;11.054;2022-09-24T00:41:34;12.40;99.90
6110;DHT22;3085;49.444;11.054;2022-09-24T00:44:48;12.50;99.90
6110;DHT22;3085;49.444;11.054;2022-09-24T00:47:25;12.50;99.90
6110;DHT22;3085;49.444;11.054;2022-09-24T00:49:57;12.50;99.90
6110;DHT22;3085;49.444;11.054;2022-09-24T00:52:24;12.50;99.90
6110;DHT22;3085;49.444;11.054;2022-09-24T00:54:51;12.60;99.90
6110;DHT22;3085;49.444;11.054;2022-09-24T00:57:18;12.40;99.90
6110;DHT22;3085;49.444;11.054;2022-09-24T00:59:46;12.40;99.90
6110;DHT22;3085;49.444;11.054;2022-09-24T01:02:13;12.40;99.90
6110;DHT22;3085;49.444;11.054;2022-09-24T01:04:40;12.40;99.90
6110;DHT22;3085;49.444;11.054;2022-09-24T01:07:07;12.40;99.90
6110;DHT22;3085;49.444;11.054;2022-09-24T01:09:34;12.40;99.90
6110;DHT22;3085;49.444;11.054;2022-09-24T01:12:04;12.40;99.90
6110;DHT22;3085;49.444;11.054;2022-09-24T01:14:51;12.40;99.90
6110;DHT22;3085;49.444;11.054;2022-09-24T01:17:28;12.20;99.90
6110;DHT22;3085;49.444;11.054;2022-09-24T01:20:20;12.20;99.90
6110;DHT22;3085;49.444;11.054;2022-09-24T01:23:11;12.30;99.90
6110;DHT22;3085;49.444;11.054;2022-09-24T01:25:45;12.30;99.90
6110;DHT22;3085;49.444;11.054;2022-09-24T01:28:32;12.30;99.90
6110;DHT22;3085;49.444;11.054;2022-09-24T01:31:08;12.40;99.90
6110;DHT22;3085;49.444;11.054;2022-09-24T01:33:36;12.30;99.90
6110;DHT22;3085;49.444;11.054;2022-09-24T01:36:04;12.40;99.90
6110;DHT22;3085;49.444;11.054;2022-09-24T01:38:36;12.40;99.90
6110;DHT22;3085;49.444;11.054;2022-09-24T01:41:06;12.30;99.90
6110;DHT22;3085;49.444;11.054;2022-09-24T01:43:35;12.30;99.90
6110;DHT22;3085;49.444;11.054;2022-09-24T01:46:05;12.30;99.90
6110;DHT22;3085;49.444;11.054;2022-09-24T01:48:35;12.20;99.90
6110;DHT22;3085;49.444;11.054;2022-09-24T01:51:05;12.10;99.90
6110;DHT22;3085;49.444;11.054;2022-09-24T01:53:38;12.20;99.90
6110;DHT22;3085;49.444;11.054;2022-09-24T01:56:11;12.00;99.90
6110;DHT22;3085;49.444;11.054;2022-09-24T01:58:45;12.10;99.90
6110;DHT22;3085;49.444;11.054;2022-09-24T02:01:18;12.10;99.90
6110;DHT22;3085;49.444;11.054;2022-09-24T02:03:50;12.00;99.90
6110;DHT22;3085;49.444;11.054;2022-09-24T02:06:24;12.00;99.90
6110;DHT22;3085;49.444;11.054;2022-09-24T02:08:51;12.00;99.90
6110;DHT22;3085;49.444;11.054;2022-09-24T02:11:20;11.90;99.90
6110;DHT22;3085;49.444;11.054;2022-09-24T02:13:52;11.90;99.90
6110;DHT22;3085;49.444;11.054;2022-09-24T02:16:25;11.90;99.90
6110;DHT22;3085;49.444;11.054;2022-09-24T02:18:55;11.90;99.90
6110;DHT22;3085;49.444;11.054;2022-09-24T02:21:25;12.00;99.90
6110;DHT22;3085;49.444;11.054;2022-09-24T02:23:56;12.00;99.90
6110;DHT22;3085;49.444;11.054;2022-09-24T02:26:25;12.00;99.90
6110;DHT22;3085;49.444;11.054;2022-09-24T02:28:52;12.00;99.90
6110;DHT22;3085;49.444;11.054;2022-09-24T02:31:23;12.00;99.90
6110;DHT22;3085;49.444;11.054;2022-09-24T02:33:53;12.00;99.90
6110;DHT22;3085;49.444;11.054;2022-09-24T02:36:39;11.90;99.90
6110;DHT22;3085;49.444;11.054;2022-09-24T02:39:06;12.00;99.90
6110;DHT22;3085;49.444;11.054;2022-09-24T02:41:33;12.00;99.90
6110;DHT22;3085;49.444;11.054;2022-09-24T02:44:01;12.00;99.90
6110;DHT22;3085;49.444;11.054;2022-09-24T02:46:29;11.90;99.90
6110;DHT22;3085;49.444;11.054;2022-09-24T02:48:56;12.00;99.90
6110;DHT22;3085;49.444;11.054;2022-09-24T02:51:23;12.00;99.90
6110;DHT22;3085;49.444;11.054;2022-09-24T02:53:49;12.00;99.90
6110;DHT22;3085;49.444;11.054;2022-09-24T02:56:16;12.00;99.90
6110;DHT22;3085;49.444;11.054;2022-09-24T02:58:43;12.10;99.90
6110;DHT22;3085;49.444;11.054;2022-09-24T03:01:10;12.00;99.90
6110;DHT22;3085;49.444;11.054;2022-09-24T03:03:38;12.00;99.90
6110;DHT22;3085;49.444;11.054;2022-09-24T03:06:05;12.00;99.90
6110;DHT22;3085;49.444;11.054;2022-09-24T03:08:32;12.10;99.90
6110;DHT22;3085;49.444;11.054;2022-09-24T03:11:00;12.00;99.90
6110;DHT22;3085;49.444;11.054;2022-09-24T03:13:26;12.10;99.90
6110;DHT22;3085;49.444;11.054;2022-09-24T03:15:53;12.10;99.90
6110;DHT22;3085;49.444;11.054;2022-09-24T03:18:20;12.10;99.90
6110;DHT22;3085;49.444;11.054;2022-09-24T03:20:55;12.10;99.90
6110;DHT22;3085;49.444;11.054;2022-09-24T03:23:22;12.00;99.90
6110;DHT22;3085;49.444;11.054;2022-09-24T03:25:49;12.00;99.90
6110;DHT22;3085;49.444;11.054;2022-09-24T03:28:16;12.10;99.90
6110;DHT22;3085;49.444;11.054;2022-09-24T03:30:43;12.00;99.90
6110;DHT22;3085;49.444;11.054;2022-09-24T03:33:25;12.00;99.90
6110;DHT22;3085;49.444;11.054;2022-09-24T03:35:56;12.10;99.90
6110;DHT22;3085;49.444;11.054;2022-09-24T03:38:23;12.00;99.90
6110;DHT22;3085;49.444;11.054;2022-09-24T03:40:50;12.00;99.90
6110;DHT22;3085;49.444;11.054;2022-09-24T03:43:17;12.00;99.90
6110;DHT22;3085;49.444;11.054;2022-09-24T03:45:44;12.00;99.90
6110;DHT22;3085;49.444;11.054;2022-09-24T03:48:11;11.90;99.90
6110;DHT22;3085;49.444;11.054;2022-09-24T03:50:38;12.00;99.90
6110;DHT22;3085;49.444;11.054;2022-09-24T03:53:06;12.00;99.90
6110;DHT22;3085;49.444;11.054;2022-09-24T03:55:34;12.00;99.90
6110;DHT22;3085;49.444;11.054;2022-09-24T03:58:01;12.00;99.90
6110;DHT22;3085;49.444;11.054;2022-09-24T04:00:28;12.00;99.90
6110;DHT22;3085;49.444;11.054;2022-09-24T04:02:54;12.00;99.90
6110;DHT22;3085;49.444;11.054;2022-09-24T04:05:21;12.00;99.90
6110;DHT22;3085;49.444;11.054;2022-09-24T04:07:48;11.90;99.90
6110;DHT22;3085;49.444;11.054;2022-09-24T04:10:16;12.00;99.90
6110;DHT22;3085;49.444;11.054;2022-09-24T04:12:43;11.90;99.90
6110;DHT22;3085;49.444;11.054;2022-09-24T04:15:10;11.90;99.90
6110;DHT22;3085;49.444;11.054;2022-09-24T04:17:37;12.00;99.90
6110;DHT22;3085;49.444;11.054;2022-09-24T04:20:05;12.00;99.90
6110;DHT22;3085;49.444;11.054;2022-09-24T04:22:32;12.00;99.90
6110;DHT22;3085;49.444;11.054;2022-09-24T04:24:59;12.00;99.90
6110;DHT22;3085;49.444;11.054;2022-09-24T04:27:28;12.00;99.90
6110;DHT22;3085;49.444;11.054;2022-09-24T04:29:55;11.90;99.90
6110;DHT22;3085;49.444;11.054;2022-09-24T04:32:22;11.90;99.90
6110;DHT22;3085;49.444;11.054;2022-09-24T04:34:49;11.90;99.90
6110;DHT22;3085;49.444;11.054;2022-09-24T04:37:15;11.90;99.90
6110;DHT22;3085;49.444;11.054;2022-09-24T04:39:42;11.90;99.90
6110;DHT22;3085;49.444;11.054;2022-09-24T04:42:09;11.80;99.90
6110;DHT22;3085;49.444;11.054;2022-09-24T04:44:37;11.90;99.90
6110;DHT22;3085;49.444;11.054;2022-09-24T04:47:04;11.90;99.90
6110;DHT22;3085;49.444;11.054;2022-09-24T04:49:33;11.80;99.90
6110;DHT22;3085;49.444;11.054;2022-09-24T04:52:00;11.80;99.90
6110;DHT22;3085;49.444;11.054;2022-09-24T04:54:27;11.80;99.90
6110;DHT22;3085;49.444;11.054;2022-09-24T04:56:54;11.80;99.90
6110;DHT22;3085;49.444;11.054;2022-09-24T04:59:21;11.80;99.90
6110;DHT22;3085;49.444;11.054;2022-09-24T05:01:50;11.70;99.90
6110;DHT22;3085;49.444;11.054;2022-09-24T05:04:18;11.70;99.90
6110;DHT22;3085;49.444;11.054;2022-09-24T05:06:45;11.70;99.90
6110;DHT22;3085;49.444;11.054;2022-09-24T05:09:12;11.70;99.90
6110;DHT22;3085;49.444;11.054;2022-09-24T05:11:39;11.60;99.90
6110;DHT22;3085;49.444;11.054;2022-09-24T05:14:06;11.60;99.90
6110;DHT22;3085;49.444;11.054;2022-09-24T05:16:33;11.60;99.90
6110;DHT22;3085;49.444;11.054;2022-09-24T05:19:01;11.60;99.90
6110;DHT22;3085;49.444;11.054;2022-09-24T05:21:29;11.60;99.90
6110;DHT22;3085;49.444;11.054;2022-09-24T05:23:56;11.50;99.90
6110;DHT22;3085;49.444;11.054;2022-09-24T05:26:23;11.60;99.90
6110;DHT22;3085;49.444;11.054;2022-09-24T05:29:07;11.60;99.90
6110;DHT22;3085;49.444;11.054;2022-09-24T05:31:33;11.60;99.90
6110;DHT22;3085;49.444;11.054;2022-09-24T05:34:02;11.50;99.90
6110;DHT22;3085;49.444;11.054;2022-09-24T05:36:29;11.60;99.90
6110;DHT22;3085;49.444;11.054;2022-09-24T05:38:56;11.50;99.90
6110;DHT22;3085;49.444;11.054;2022-09-24T05:41:23;11.50;99.90
6110;DHT22;3085;49.444;11.054;2022-09-24T05:43:50;11.60;99.90
6110;DHT22;3085;49.444;11.054;2022-09-24T05:46:17;11.60;99.90
6110;DHT22;3085;49.444;11.054;2022-09-24T05:48:43;11.60;99.90
6110;DHT22;3085;49.444;11.054;2022-09-24T05:51:11;11.60;99.90
6110;DHT22;3085;49.444;11.054;2022-09-24T05:53:38;11.60;99.90
6110;DHT22;3085;49.444;11.054;2022-09-24T05:56:07;11.60;99.90
6110;DHT22;3085;49.444;11.054;2022-09-24T05:58:35;11.60;99.90
6110;DHT22;3085;49.444;11.054;2022-09-24T06:01:02;11.90;99.90
6110;DHT22;3085;49.444;11.054;2022-09-24T06:03:29;11.60;99.90
6110;DHT22;3085;49.444;11.054;2022-09-24T06:05:56;11.70;99.90
6110;DHT22;3085;49.444;11.054;2022-09-24T06:08:29;11.70;99.90
6110;DHT22;3085;49.444;11.054;2022-09-24T06:10:58;11.70;99.90
6110;DHT22;3085;49.444;11.054;2022-09-24T06:13:25;11.80;99.90
6110;DHT22;3085;49.444;11.054;2022-09-24T06:15:51;11.70;99.90
6110;DHT22;3085;49.444;11.054;2022-09-24T06:18:18;11.80;99.90
6110;DHT22;3085;49.444;11.054;2022-09-24T06:20:45;11.80;99.90
6110;DHT22;3085;49.444;11.054;2022-09-24T06:23:13;11.70;99.90
6110;DHT22;3085;49.444;11.054;2022-09-24T06:25:41;11.70;99.90
6110;DHT22;3085;49.444;11.054;2022-09-24T06:28:08;11.80;99.90
6110;DHT22;3085;49.444;11.054;2022-09-24T06:30:37;12.00;99.90
6110;DHT22;3085;49.444;11.054;2022-09-24T06:33:06;11.80;99.90
6110;DHT22;3085;49.444;11.054;2022-09-24T06:35:34;11.80;99.90
6110;DHT22;3085;49.444;11.054;2022-09-24T06:38:02;11.90;99.90
6110;DHT22;3085;49.444;11.054;2022-09-24T06:40:29;11.90;99.90
6110;DHT22;3085;49.444;11.054;2022-09-24T06:42:57;11.90;99.90
6110;DHT22;3085;49.444;11.054;2022-09-24T06:45:24;12.00;99.90
6110;DHT22;3085;49.444;11.054;2022-09-24T06:47:53;12.00;99.90
6110;DHT22;3085;49.444;11.054;2022-09-24T06:50:21;12.10;99.90
6110;DHT22;3085;49.444;11.054;2022-09-24T06:52:48;12.10;99.90
6110;DHT22;3085;49.444;11.054;2022-09-24T06:55:15;12.20;99.90
6110;DHT22;3085;49.444;11.054;2022-09-24T06:57:42;12.30;99.90
6110;DHT22;3085;49.444;11.054;2022-09-24T07:00:13;12.30;99.90
6110;DHT22;3085;49.444;11.054;2022-09-24T07:02:40;12.30;99.90
6110;DHT22;3085;49.444;11.054;2022-09-24T07:05:08;12.40;99.90
6110;DHT22;3085;49.444;11.054;2022-09-24T07:07:35;12.50;99.90
6110;DHT22;3085;49.444;11.054;2022-09-24T07:10:04;12.50;99.90
6110;DHT22;3085;49.444;11.054;2022-09-24T07:12:32;12.60;99.90
6110;DHT22;3085;49.444;11.054;2022-09-24T07:15:00;13.70;99.90
6110;DHT22;3085;49.444;11.054;2022-09-24T07:17:28;12.60;99.90
6110;DHT22;3085;49.444;11.054;2022-09-24T07:19:55;12.70;99.90
6110;DHT22;3085;49.444;11.054;2022-09-24T07:22:22;12.70;99.90
6110;DHT22;3085;49.444;11.054;2022-09-24T07:24:48;12.70;99.90
6110;DHT22;3085;49.444;11.054;2022-09-24T07:27:15;12.70;99.90
6110;DHT22;3085;49.444;11.054;2022-09-24T07:29:42;12.80;99.90
6110;DHT22;3085;49.444;11.054;2022-09-24T07:32:09;12.90;99.90
6110;DHT22;3085;49.444;11.054;2022-09-24T07:34:37;12.90;99.90
6110;DHT22;3085;49.444;11.054;2022-09-24T07:37:04;12.90;99.90
6110;DHT22;3085;49.444;11.054;2022-09-24T07:39:32;13.00;99.90
6110;DHT22;3085;49.444;11.054;2022-09-24T07:41:59;13.00;99.90
6110;DHT22;3085;49.444;11.054;2022-09-24T07:44:27;13.20;99.90
6110;DHT22;3085;49.444;11.054;2022-09-24T07:46:54;13.10;99.90
6110;DHT22;3085;49.444;11.054;2022-09-24T07:49:22;13.30;99.90
6110;DHT22;3085;49.444;11.054;2022-09-24T07:51:50;13.40;99.90
6110;DHT22;3085;49.444;11.054;2022-09-24T07:54:18;13.50;99.90
6110;DHT22;3085;49.444;11.054;2022-09-24T07:56:45;13.60;99.90
6110;DHT22;3085;49.444;11.054;2022-09-24T07:59:12;13.70;99.90
6110;DHT22;3085;49.444;11.054;2022-09-24T08:01:39;13.50;99.90
6110;DHT22;3085;49.444;11.054;2022-09-24T08:04:06;14.10;99.90
6110;DHT22;3085;49.444;11.054;2022-09-24T08:06:33;13.70;99.90
6110;DHT22;3085;49.444;11.054;2022-09-24T08:09:01;13.80;99.90
6110;DHT22;3085;49.444;11.054;2022-09-24T08:11:28;13.80;99.90
6110;DHT22;3085;49.444;11.054;2022-09-24T08:13:56;13.90;99.90
6110;DHT22;3085;49.444;11.054;2022-09-24T08:16:23;13.90;99.90
6110;DHT22;3085;49.444;11.054;2022-09-24T08:18:51;13.90;99.90
6110;DHT22;3085;49.444;11.054;2022-09-24T08:21:18;14.00;99.90
6110;DHT22;3085;49.444;11.054;2022-09-24T08:23:45;14.00;99.90
6110;DHT22;3085;49.444;11.054;2022-09-24T08:26:13;14.00;99.90
6110;DHT22;3085;49.444;11.054;2022-09-24T08:28:40;14.00;99.90
6110;DHT22;3085;49.444;11.054;2022-09-24T08:31:10;14.10;99.90
6110;DHT22;3085;49.444;11.054;2022-09-24T08:33:38;14.20;99.90
6110;DHT22;3085;49.444;11.054;2022-09-24T08:36:07;14.20;99.90
6110;DHT22;3085;49.444;11.054;2022-09-24T08:38:34;14.30;99.90
6110;DHT22;3085;49.444;11.054;2022-09-24T08:41:13;14.40;99.90
6110;DHT22;3085;49.444;11.054;2022-09-24T08:43:48;14.50;99.90
6110;DHT22;3085;49.444;11.054;2022-09-24T08:46:22;14.50;99.90
6110;DHT22;3085;49.444;11.054;2022-09-24T08:49:12;14.60;99.90
6110;DHT22;3085;49.444;11.054;2022-09-24T08:51:49;14.70;99.90
6110;DHT22;3085;49.444;11.054;2022-09-24T08:54:19;14.70;99.90
6110;DHT22;3085;49.444;11.054;2022-09-24T08:56:48;14.70;99.90
6110;DHT22;3085;49.444;11.054;2022-09-24T08:59:26;14.70;99.90
6110;DHT22;3085;49.444;11.054;2022-09-24T09:02:01;14.80;99.90
6110;DHT22;3085;49.444;11.054;2022-09-24T09:04:38;14.80;99.90
6110;DHT22;3085;49.444;11.054;2022-09-24T09:07:13;14.90;99.90
6110;DHT22;3085;49.444;11.054;2022-09-24T09:09:48;14.90;99.90
6110;DHT22;3085;49.444;11.054;2022-09-24T09:12:18;14.90;99.90
6110;DHT22;3085;49.444;11.054;2022-09-24T09:14:54;15.00;99.90
6110;DHT22;3085;49.444;11.054;2022-09-24T09:17:35;14.80;99.90
6110;DHT22;3085;49.444;11.054;2022-09-24T09:20:10;15.00;99.90
6110;DHT22;3085;49.444;11.054;2022-09-24T09:22:43;15.00;99.90
6110;DHT22;3085;49.444;11.054;2022-09-24T09:25:18;15.10;99.90
6110;DHT22;3085;49.444;11.054;2022-09-24T09:27:48;15.10;99.90
6110;DHT22;3085;49.444;11.054;2022-09-24T09:30:18;15.20;99.90
6110;DHT22;3085;49.444;11.054;2022-09-24T09:33:17;15.30;99.90
6110;DHT22;3085;49.444;11.054;2022-09-24T09:35:51;15.30;99.90
6110;DHT22;3085;49.444;11.054;2022-09-24T09:38:23;15.30;99.90
6110;DHT22;3085;49.444;11.054;2022-09-24T09:40:58;15.30;99.90
6110;DHT22;3085;49.444;11.054;2022-09-24T09:43:28;15.40;99.90
6110;DHT22;3085;49.444;11.054;2022-09-24T09:46:04;15.50;99.90
6110;DHT22;3085;49.444;11.054;2022-09-24T09:48:42;15.50;99.90
6110;DHT22;3085;49.444;11.054;2022-09-24T09:51:15;15.40;99.90
6110;DHT22;3085;49.444;11.054;2022-09-24T09:53:53;15.50;99.90
6110;DHT22;3085;49.444;11.054;2022-09-24T09:56:23;15.60;99.90
6110;DHT22;3085;49.444;11.054;2022-09-24T09:58:50;15.70;99.90
6110;DHT22;3085;49.444;11.054;2022-09-24T10:01:30;15.70;99.90
6110;DHT22;3085;49.444;11.054;2022-09-24T10:03:58;15.70;99.90
6110;DHT22;3085;49.444;11.054;2022-09-24T10:06:29;15.80;99.90
6110;DHT22;3085;49.444;11.054;2022-09-24T10:09:06;15.70;99.90
6110;DHT22;3085;49.444;11.054;2022-09-24T10:11:34;15.70;99.90
6110;DHT22;3085;49.444;11.054;2022-09-24T10:14:02;15.70;99.90
6110;DHT22;3085;49.444;11.054;2022-09-24T10:16:35;15.80;99.90
6110;DHT22;3085;49.444;11.054;2022-09-24T10:19:03;15.80;99.90
6110;DHT22;3085;49.444;11.054;2022-09-24T10:21:37;15.70;99.90
6110;DHT22;3085;49.444;11.054;2022-09-24T10:24:06;15.80;99.90
6110;DHT22;3085;49.444;11.054;2022-09-24T10:26:39;15.90;99.90
6110;DHT22;3085;49.444;11.054;2022-09-24T10:29:11;15.90;99.90
6110;DHT22;3085;49.444;11.054;2022-09-24T10:31:57;16.00;99.90
6110;DHT22;3085;49.444;11.054;2022-09-24T10:34:26;16.00;99.90
6110;DHT22;3085;49.444;11.054;2022-09-24T10:36:59;16.00;99.90
6110;DHT22;3085;49.444;11.054;2022-09-24T10:39:27;16.00;99.90
6110;DHT22;3085;49.444;11.054;2022-09-24T10:41:55;16.00;99.90
6110;DHT22;3085;49.444;11.054;2022-09-24T10:44:24;16.10;99.90
6110;DHT22;3085;49.444;11.054;2022-09-24T10:47:17;16.10;99.90
6110;DHT22;3085;49.444;11.054;2022-09-24T10:50:00;16.00;99.90
6110;DHT22;3085;49.444;11.054;2022-09-24T10:52:43;16.10;99.90
6110;DHT22;3085;49.444;11.054;2022-09-24T10:55:20;16.10;99.90
6110;DHT22;3085;49.444;11.054;2022-09-24T10:57:57;16.10;99.90
6110;DHT22;3085;49.444;11.054;2022-09-24T11:00:31;16.20;99.90
6110;DHT22;3085;49.444;11.054;2022-09-24T11:03:28;16.20;99.90
6110;DHT22;3085;49.444;11.054;2022-09-24T11:06:00;16.20;99.90
6110;DHT22;3085;49.444;11.054;2022-09-24T11:08:52;16.20;99.90
6110;DHT22;3085;49.444;11.054;2022-09-24T11:11:30;16.20;99.90
6110;DHT22;3085;49.444;11.054;2022-09-24T11:14:07;16.20;99.90
6110;DHT22;3085;49.444;11.054;2022-09-24T11:17:00;16.20;99.90
6110;DHT22;3085;49.444;11.054;2022-09-24T11:19:51;16.30;99.90
6110;DHT22;3085;49.444;11.054;2022-09-24T11:22:28;16.40;99.90
6110;DHT22;3085;49.444;11.054;2022-09-24T11:25:11;16.40;99.90
6110;DHT22;3085;49.444;11.054;2022-09-24T11:27:50;16.40;99.90
6110;DHT22;3085;49.444;11.054;2022-09-24T11:30:21;16.50;99.90
6110;DHT22;3085;49.444;11.054;2022-09-24T11:33:06;16.40;99.90
6110;DHT22;3085;49.444;11.054;2022-09-24T11:36:01;16.40;99.90
6110;DHT22;3085;49.444;11.054;2022-09-24T11:38:42;16.40;99.90
6110;DHT22;3085;49.444;11.054;2022-09-24T11:41:25;16.50;99.90
6110;DHT22;3085;49.444;11.054;2022-09-24T11:44:09;16.60;99.90
6110;DHT22;3085;49.444;11.054;2022-09-24T11:46:46;16.70;99.90
6110;DHT22;3085;49.444;11.054;2022-09-24T11:52:18;16.80;99.90
6110;DHT22;3085;49.444;11.054;2022-09-24T11:54:55;16.80;99.90
6110;DHT22;3085;49.444;11.054;2022-09-24T11:57:27;16.80;99.90
6110;DHT22;3085;49.444;11.054;2022-09-24T11:59:57;16.70;99.90
6110;DHT22;3085;49.444;11.054;2022-09-24T12:02:33;16.90;99.90
6110;DHT22;3085;49.444;11.054;2022-09-24T12:05:04;16.80;99.90
6110;DHT22;3085;49.444;11.054;2022-09-24T12:07:37;16.80;99.90
6110;DHT22;3085;49.444;11.054;2022-09-24T12:10:21;16.90;99.90
6110;DHT22;3085;49.444;11.054;2022-09-24T12:12:52;16.90;99.90
6110;DHT22;3085;49.444;11.054;2022-09-24T12:15:26;16.90;99.90
6110;DHT22;3085;49.444;11.054;2022-09-24T12:17:57;16.90;99.90
6110;DHT22;3085;49.444;11.054;2022-09-24T12:20:31;16.90;99.90
6110;DHT22;3085;49.444;11.054;2022-09-24T12:23:03;17.00;99.90
6110;DHT22;3085;49.444;11.054;2022-09-24T12:25:36;17.00;99.90
6110;DHT22;3085;49.444;11.054;2022-09-24T12:28:05;17.10;99.90
6110;DHT22;3085;49.444;11.054;2022-09-24T12:30:41;17.10;99.90
6110;DHT22;3085;49.444;11.054;2022-09-24T12:33:31;17.10;99.90
6110;DHT22;3085;49.444;11.054;2022-09-24T12:36:04;17.20;99.90
6110;DHT22;3085;49.444;11.054;2022-09-24T12:38:38;17.20;99.90
6110;DHT22;3085;49.444;11.054;2022-09-24T12:41:24;17.30;99.90
6110;DHT22;3085;49.444;11.054;2022-09-24T12:43:57;17.20;99.90
6110;DHT22;3085;49.444;11.054;2022-09-24T12:46:30;17.20;99.90
6110;DHT22;3085;49.444;11.054;2022-09-24T12:48:57;17.20;99.90
6110;DHT22;3085;49.444;11.054;2022-09-24T12:51:33;17.20;99.90
6110;DHT22;3085;49.444;11.054;2022-09-24T12:54:07;17.20;99.90
6110;DHT22;3085;49.444;11.054;2022-09-24T12:56:35;17.30;99.90
6110;DHT22;3085;49.444;11.054;2022-09-24T12:59:02;17.20;99.90
6110;DHT22;3085;49.444;11.054;2022-09-24T13:01:31;17.20;99.90
6110;DHT22;3085;49.444;11.054;2022-09-24T13:04:04;17.10;99.90
6110;DHT22;3085;49.444;11.054;2022-09-24T13:06:33;17.20;99.90
6110;DHT22;3085;49.444;11.054;2022-09-24T13:09:01;17.10;99.90
6110;DHT22;3085;49.444;11.054;2022-09-24T13:11:31;17.20;99.90
6110;DHT22;3085;49.444;11.054;2022-09-24T13:14:02;17.20;99.90
6110;DHT22;3085;49.444;11.054;2022-09-24T13:16:30;17.20;99.90
6110;DHT22;3085;49.444;11.054;2022-09-24T13:19:03;17.30;99.90
6110;DHT22;3085;49.444;11.054;2022-09-24T13:21:31;17.40;99.90
6110;DHT22;3085;49.444;11.054;2022-09-24T13:24:09;17.20;99.90
6110;DHT22;3085;49.444;11.054;2022-09-24T13:26:38;17.20;99.90
6110;DHT22;3085;49.444;11.054;2022-09-24T13:29:20;17.30;99.90
6110;DHT22;3085;49.444;11.054;2022-09-24T13:31:50;17.30;99.90
6110;DHT22;3085;49.444;11.054;2022-09-24T13:34:25;17.30;99.90
6110;DHT22;3085;49.444;11.054;2022-09-24T13:36:56;17.40;99.90
6110;DHT22;3085;49.444;11.054;2022-09-24T13:39:28;17.40;99.90
6110;DHT22;3085;49.444;11.054;2022-09-24T13:42:02;17.40;99.90
6110;DHT22;3085;49.444;11.054;2022-09-24T13:44:34;17.50;99.90
6110;DHT22;3085;49.444;11.054;2022-09-24T13:47:08;17.50;99.90
6110;DHT22;3085;49.444;11.054;2022-09-24T13:49:40;17.60;99.90
6110;DHT22;3085;49.444;11.054;2022-09-24T13:52:13;17.60;99.90
6110;DHT22;3085;49.444;11.054;2022-09-24T13:54:48;17.80;99.90
6110;DHT22;3085;49.444;11.054;2022-09-24T13:57:24;17.80;99.90
6110;DHT22;3085;49.444;11.054;2022-09-24T14:00:03;17.90;99.90
6110;DHT22;3085;49.444;11.054;2022-09-24T14:02:33;18.00;99.90
6110;DHT22;3085;49.444;11.054;2022-09-24T14:05:02;18.10;99.90
6110;DHT22;3085;49.444;11.054;2022-09-24T14:07:29;18.20;99.90
6110;DHT22;3085;49.444;11.054;2022-09-24T14:10:05;18.20;99.90
6110;DHT22;3085;49.444;11.054;2022-09-24T14:12:34;18.20;99.90
6110;DHT22;3085;49.444;11.054;2022-09-24T14:15:08;17.90;99.90
6110;DHT22;3085;49.444;11.054;2022-09-24T14:17:35;18.00;99.90
6110;DHT22;3085;49.444;11.054;2022-09-24T14:20:02;18.10;99.90
6110;DHT22;3085;49.444;11.054;2022-09-24T14:22:32;18.20;99.90
6110;DHT22;3085;49.444;11.054;2022-09-24T14:25:02;18.20;99.90
6110;DHT22;3085;49.444;11.054;2022-09-24T14:27:31;18.10;99.90
6110;DHT22;3085;49.444;11.054;2022-09-24T14:30:02;18.10;99.90
6110;DHT22;3085;49.444;11.054;2022-09-24T14:32:31;18.10;99.90
6110;DHT22;3085;49.444;11.054;2022-09-24T14:35:00;18.20;99.90
6110;DHT22;3085;49.444;11.054;2022-09-24T14:37:31;18.00;99.90
6110;DHT22;3085;49.444;11.054;2022-09-24T14:40:01;18.00;99.90
6110;DHT22;3085;49.444;11.054;2022-09-24T14:42:32;17.90;99.90
6110;DHT22;3085;49.444;11.054;2022-09-24T14:45:05;18.00;99.90
6110;DHT22;3085;49.444;11.054;2022-09-24T14:47:34;18.20;99.90
6110;DHT22;3085;49.444;11.054;2022-09-24T14:50:02;18.40;99.90
6110;DHT22;3085;49.444;11.054;2022-09-24T14:52:34;18.40;99.90
6110;DHT22;3085;49.444;11.054;2022-09-24T14:55:12;18.40;99.90
6110;DHT22;3085;49.444;11.054;2022-09-24T14:57:40;18.40;99.90
6110;DHT22;3085;49.444;11.054;2022-09-24T15:00:23;18.20;99.90
6110;DHT22;3085;49.444;11.054;2022-09-24T15:02:55;18.00;99.90
6110;DHT22;3085;49.444;11.054;2022-09-24T15:05:24;18.00;99.90
6110;DHT22;3085;49.444;11.054;2022-09-24T15:08:08;17.90;99.90
6110;DHT22;3085;49.444;11.054;2022-09-24T15:10:36;17.80;99.90
6110;DHT22;3085;49.444;11.054;2022-09-24T15:13:12;17.80;99.90
6110;DHT22;3085;49.444;11.054;2022-09-24T15:15:41;17.70;99.90
6110;DHT22;3085;49.444;11.054;2022-09-24T15:18:09;17.70;99.90
6110;DHT22;3085;49.444;11.054;2022-09-24T15:20:36;17.70;99.90
6110;DHT22;3085;49.444;11.054;2022-09-24T15:23:03;17.50;99.90
6110;DHT22;3085;49.444;11.054;2022-09-24T15:25:30;17.50;99.90
6110;DHT22;3085;49.444;11.054;2022-09-24T15:27:57;17.40;99.90
6110;DHT22;3085;49.444;11.054;2022-09-24T15:30:23;17.40;99.90
6110;DHT22;3085;49.444;11.054;2022-09-24T15:32:51;17.40;99.90
6110;DHT22;3085;49.444;11.054;2022-09-24T15:35:18;17.40;99.90
6110;DHT22;3085;49.444;11.054;2022-09-24T15:37:45;17.40;99.90
6110;DHT22;3085;49.444;11.054;2022-09-24T15:40:21;17.40;99.90
6110;DHT22;3085;49.444;11.054;2022-09-24T15:42:49;17.40;99.90
6110;DHT22;3085;49.444;11.054;2022-09-24T15:45:18;17.40;99.90
6110;DHT22;3085;49.444;11.054;2022-09-24T15:47:46;17.30;99.90
6110;DHT22;3085;49.444;11.054;2022-09-24T15:50:15;17.40;99.90
6110;DHT22;3085;49.444;11.054;2022-09-24T15:52:45;17.40;99.90
6110;DHT22;3085;49.444;11.054;2022-09-24T15:55:16;17.40;99.90
6110;DHT22;3085;49.444;11.054;2022-09-24T15:57:44;17.40;99.90
6110;DHT22;3085;49.444;11.054;2022-09-24T16:00:13;17.30;99.90
6110;DHT22;3085;49.444;11.054;2022-09-24T16:02:42;17.30;99.90
6110;DHT22;3085;49.444;11.054;2022-09-24T16:05:11;17.30;99.90
6110;DHT22;3085;49.444;11.054;2022-09-24T16:07:39;17.30;99.90
6110;DHT22;3085;49.444;11.054;2022-09-24T16:10:07;17.30;99.90
6110;DHT22;3085;49.444;11.054;2022-09-24T16:12:35;17.30;99.90